Terminal Aerodrome Forecast
Issued by NWS

Home | Current Version | Previous Version | Text Only | Print | Product List | Glossary On
Versions: 1 2 3 4 5 6 7 8 9 10 11 12 13
799
FTUS46 KLOX 201127
TAFWJF
TAF
KWJF 201127Z 2012/2112 VRB03KT P6SM BKN200
     FM202100 28012KT P6SM BKN200
     FM210600 VRB03KT P6SM SCT250=

USA.gov is the U.S. government's official web portal to all federal, state and local government web resources and services.